UUWW Airport Information

Runway Information
Runway 01 Length 10039 ft width 148 ft
Elevation 633 ft Threshold 0 ft Heading 14
Runway 19 Length 10039 ft Width 148 ft
Elevation 634 ft Threshold 0 ft Heading 194
Runway 06 Length 9842 ft width 197 ft
Elevation 637 ft Threshold 0 ft Heading 68
Runway 24 Length 9842 ft Width 197 ft
Elevation 680 ft Threshold 0 ft Heading 248
Airport Frequencies
Type APP Name APP Frequency 122.3 MHZ
Type ATIS Name ATIS Frequency 125.875 MHZ
Type GND Name TAXIING Frequency 120.45 MHZ
Type RDR Name RADAR Frequency 126 MHZ
Type TWR Name TWR Frequency 118.3 MHZ
Airport Navaids
Type NDB Name Vnukovo Frequency 290 KHZ
Type NDB Name Vnukovo Frequency 290 KHZ
Type NDB Name Vnukovo Frequency 468 KHZ
Type NDB Name Vnukovo Frequency 468 KHZ
Airport Weather Information & NOTAM
ADDS - METARS form results

(2110 UTC 24 May 2022)
Data provider http://aviationweather.gov/metar/data/
 
METAR text: UUWW 242100Z 36002MPS CAVOK 05/M02 Q1012 R06/000070 NOSIG
Conditions at: UUWW (MOSCOW/VNUKOVO , RU) observed 2100 UTC 24 May 2022
Temperature: 5.0°C (41°F)
Dewpoint: -2.0°C (28°F) [RH = 60%]
Pressure (altimeter): 29.88 inches Hg (1012.0 mb)
Winds: from the N (360 degrees) at 5 MPH (4 knots; 2.1 m/s)
Visibility: 6 or more miles (10+ km)
Ceiling: ceiling and visibility are OK
Clouds: unknown
Weather: no significant weather observed at this time

METAR text: UUWW 242030Z 36002MPS CAVOK 05/M02 Q1012 R06/000070 NOSIG
Conditions at: UUWW (MOSCOW/VNUKOVO , RU) observed 2030 UTC 24 May 2022
Temperature: 5.0°C (41°F)
Dewpoint: -2.0°C (28°F) [RH = 60%]
Pressure (altimeter): 29.88 inches Hg (1012.0 mb)
Winds: from the N (360 degrees) at 5 MPH (4 knots; 2.1 m/s)
Visibility: 6 or more miles (10+ km)
Ceiling: ceiling and visibility are OK
Clouds: unknown
Weather: no significant weather observed at this time

Forecast for: UUWW (MOSCOW/VNUKOVO , RU)
Text: TAF UUWW 241950Z 2421/2521 33003MPS 9999 SCT020 TX12/2512Z TN01/2502Z
Forecast period: 2100 UTC 24 May 2022 to 2100 UTC 25 May 2022
Forecast type: FROM: standard forecast or significant change
Winds: from the NNW (330 degrees) at 7 MPH (6 knots; 3.1 m/s)
Visibility: 6 or more miles (10+ km)
Ceiling: at least 12,000 feet AGL
Clouds: scattered clouds at 2000 feet AGL
Weather: no significant weather forecast for this period